Downstream station:
SHEF ID: ENWK1 CROOKED C NR ENGLEWOOD, KS
STATION TYPE:
Regulating: Stage = 6.50, Flow = 243
PRECIP STAGE RIV-FLOW BAT-LOAD
in ft cfs volt
Ccp-Rev Ccp-Rev Ccp-Rev Ccp-Rev
(US/Central)
12/19 00:00 0.00 2.53 5 12.77
12/19 01:00 0.00 2.66 7 12.71
12/19 02:00 0.00 2.72 8 12.71
12/19 03:00 0.00 2.76 8 12.65
12/19 04:00 0.00 2.78 9 12.65
12/19 05:00 0.00 2.80 9 12.60
12/19 06:00 0.00 2.80 9 12.54
12/19 07:00 0.00 2.80 9 12.48
12/19 08:00 0.00 2.77 8 12.42
12/19 09:00 0.00 2.76 8 13.88
12/19 10:00 0.00 2.79 9 14.94
12/19 11:00 0.00 2.56 5 14.71
12/19 12:00 0.00 2.42 3 14.53
12/19 13:00 0.00 2.39 3 14.41
12/19 14:00 0.00 2.39 3 14.30
12/19 15:00 0.00 2.41 3 14.30
12/19 16:00 0.00 2.45 4 14.24
12/19 17:00 0.00 2.45 4 14.06
12/19 18:00 0.00 2.46 4 13.59
12/19 19:00 0.00 2.45 4 13.12
12/19 20:00 0.00 2.44 4 13.00
12/19 21:00 0.00 2.44 4 12.95
12/19 22:00 0.00 2.44 4 12.89
12/19 23:00 ---- ---- ---- ----